createdAt,value
2023-01-03T00:01:17.550Z,7.10
2023-01-03T00:03:45.519Z,7.20
2023-01-03T00:06:19.180Z,7.20
2023-01-03T00:08:47.549Z,7.20
2023-01-03T00:11:17.007Z,7.30
2023-01-03T00:13:44.545Z,7.30
2023-01-03T00:16:19.369Z,7.30
2023-01-03T00:18:47.992Z,7.40
2023-01-03T00:21:15.817Z,7.40
2023-01-03T00:23:44.975Z,7.30
2023-01-03T00:26:14.246Z,7.30
2023-01-03T00:28:42.296Z,7.30
2023-01-03T00:31:11.997Z,7.30
2023-01-03T00:33:41.493Z,7.20
2023-01-03T00:36:11.242Z,7.20
2023-01-03T00:38:39.775Z,7.20
2023-01-03T00:41:10.474Z,7.20
2023-01-03T00:43:39.191Z,7.10
2023-01-03T00:46:08.293Z,7.10
2023-01-03T00:48:36.681Z,7.10
2023-01-03T00:51:08.172Z,7.00
2023-01-03T00:53:36.936Z,7.00
2023-01-03T00:56:05.831Z,6.90
2023-01-03T00:58:35.618Z,6.90
2023-01-03T01:01:07.427Z,6.80
2023-01-03T01:03:35.653Z,6.80
2023-01-03T01:06:12.335Z,6.70
2023-01-03T01:08:40.271Z,6.70
2023-01-03T01:11:08.220Z,6.60
2023-01-03T01:13:38.171Z,6.60
2023-01-03T01:16:08.416Z,6.60
2023-01-03T01:18:37.696Z,6.60
2023-01-03T01:21:07.127Z,6.60
2023-01-03T01:23:36.836Z,6.60
2023-01-03T01:26:06.298Z,6.50
2023-01-03T01:28:35.106Z,6.50
2023-01-03T01:31:05.944Z,6.40
2023-01-03T01:33:36.092Z,6.30
2023-01-03T01:36:07.655Z,6.30
2023-01-03T01:38:36.111Z,6.30
2023-01-03T01:41:04.783Z,6.20
2023-01-03T01:43:58.564Z,6.20
2023-01-03T01:46:31.039Z,6.20
2023-01-03T01:49:03.887Z,6.20
2023-01-03T01:51:36.114Z,6.20
2023-01-03T01:54:07.202Z,6.20
2023-01-03T01:56:37.569Z,6.20
2023-01-03T01:59:06.425Z,6.20
2023-01-03T02:01:36.848Z,6.20
2023-01-03T02:04:22.717Z,6.20
2023-01-03T02:06:51.087Z,6.10
2023-01-03T02:09:19.479Z,6.10
2023-01-03T02:12:14.216Z,6.00
2023-01-03T02:14:53.787Z,5.90
2023-01-03T02:17:32.236Z,5.90
2023-01-03T02:20:16.372Z,5.80
2023-01-03T02:23:22.348Z,5.90
2023-01-03T02:26:22.995Z,5.80
2023-01-03T02:29:31.395Z,5.90
2023-01-03T02:32:04.392Z,5.80
2023-01-03T02:34:41.570Z,5.80
2023-01-03T02:37:16.767Z,5.80
2023-01-03T02:39:49.560Z,5.90
2023-01-03T02:42:43.373Z,6.00
2023-01-03T02:45:15.298Z,6.10
2023-01-03T02:47:49.794Z,6.10
2023-01-03T02:50:19.009Z,6.20
2023-01-03T02:52:51.152Z,6.30
2023-01-03T02:55:22.985Z,6.40
2023-01-03T02:57:53.637Z,6.50
2023-01-03T03:00:24.839Z,6.50
2023-01-03T03:02:59.067Z,6.60
2023-01-03T03:05:29.749Z,6.60
2023-01-03T03:07:57.633Z,6.70
2023-01-03T03:10:44.130Z,6.70
2023-01-03T03:13:17.004Z,6.70
2023-01-03T03:15:53.095Z,6.70
2023-01-03T03:18:26.766Z,6.80
2023-01-03T03:21:18.688Z,6.80
2023-01-03T03:24:07.180Z,6.80
2023-01-03T03:26:40.054Z,6.80
2023-01-03T03:29:10.774Z,6.70
2023-01-03T03:31:42.145Z,6.70
2023-01-03T03:34:15.121Z,6.70
2023-01-03T03:36:51.145Z,6.70
2023-01-03T03:39:37.039Z,6.70
2023-01-03T03:42:36.161Z,6.70
2023-01-03T03:45:13.104Z,6.70
2023-01-03T03:47:48.608Z,6.70
2023-01-03T03:50:25.105Z,6.70
2023-01-03T03:52:58.362Z,6.70
2023-01-03T03:55:31.367Z,6.70
2023-01-03T03:58:05.658Z,6.70
2023-01-03T04:00:38.481Z,6.60
2023-01-03T04:03:08.303Z,6.60
2023-01-03T04:05:41.060Z,6.60
2023-01-03T04:08:10.178Z,6.60
2023-01-03T04:10:38.471Z,6.60
2023-01-03T04:13:07.074Z,6.50
2023-01-03T04:15:35.048Z,6.50
2023-01-03T04:18:03.095Z,6.50
2023-01-03T04:20:31.057Z,6.40
2023-01-03T04:23:00.349Z,6.40
2023-01-03T04:25:28.295Z,6.30
2023-01-03T04:27:56.191Z,6.30
2023-01-03T04:30:24.143Z,6.30
2023-01-03T04:32:51.993Z,6.20
2023-01-03T04:35:19.868Z,6.20
2023-01-03T04:37:47.875Z,6.20
2023-01-03T04:40:17.277Z,6.10
2023-01-03T04:43:02.448Z,6.10
2023-01-03T04:45:30.354Z,6.10
2023-01-03T04:47:58.313Z,6.00
2023-01-03T04:50:26.230Z,6.10
2023-01-03T04:52:54.203Z,6.00
2023-01-03T04:55:23.520Z,6.00
2023-01-03T04:57:51.446Z,6.00
2023-01-03T05:00:19.667Z,6.00
2023-01-03T05:02:47.526Z,5.90
2023-01-03T05:05:15.511Z,5.90
2023-01-03T05:07:43.408Z,5.90
2023-01-03T05:10:11.290Z,5.90
2023-01-03T05:12:40.514Z,5.80
2023-01-03T05:15:09.808Z,5.80
2023-01-03T05:17:37.734Z,5.70
2023-01-03T05:20:24.069Z,5.60
2023-01-03T05:23:09.606Z,5.50
2023-01-03T05:25:52.620Z,5.50
2023-01-03T05:28:24.340Z,5.40
2023-01-03T05:30:52.380Z,5.30
2023-01-03T05:33:20.221Z,5.30
2023-01-03T05:35:48.689Z,5.30
2023-01-03T05:38:16.543Z,5.10
2023-01-03T05:40:44.948Z,5.00
2023-01-03T05:43:13.103Z,4.90
2023-01-03T05:45:42.404Z,4.80
2023-01-03T05:48:10.589Z,4.80
2023-01-03T05:50:39.251Z,4.70
2023-01-03T05:53:07.120Z,4.60
2023-01-03T05:55:36.965Z,4.40
2023-01-03T05:58:05.026Z,4.20
2023-01-03T06:00:33.352Z,4.10
2023-01-03T06:03:02.755Z,4.00
2023-01-03T06:05:30.656Z,4.00
2023-01-03T06:08:00.752Z,4.00
2023-01-03T06:10:28.641Z,4.00
2023-01-03T06:12:56.771Z,4.00
2023-01-03T06:15:24.646Z,4.10
2023-01-03T06:17:59.048Z,4.10
2023-01-03T06:20:29.764Z,4.10
2023-01-03T06:22:57.935Z,4.00
2023-01-03T06:25:26.485Z,4.00
2023-01-03T06:27:54.334Z,3.90
2023-01-03T06:30:22.175Z,3.90
2023-01-03T06:32:50.016Z,3.90
2023-01-03T06:35:17.987Z,3.90
2023-01-03T06:37:47.296Z,3.90
2023-01-03T06:40:15.142Z,3.90
2023-01-03T06:42:45.595Z,3.60
2023-01-03T06:45:32.784Z,3.30
2023-01-03T06:48:22.566Z,3.20
2023-01-03T06:51:08.016Z,3.10
2023-01-03T06:53:38.754Z,3.10
2023-01-03T06:56:08.405Z,3.10
2023-01-03T06:58:36.895Z,3.10
2023-01-03T07:01:06.110Z,3.10
2023-01-03T07:03:34.489Z,3.10
2023-01-03T07:06:02.360Z,3.00
2023-01-03T07:08:30.253Z,3.00
2023-01-03T07:10:59.493Z,2.90
2023-01-03T07:13:44.892Z,2.80
2023-01-03T07:16:15.350Z,2.80
2023-01-03T07:18:44.371Z,2.80
2023-01-03T07:21:14.819Z,2.80
2023-01-03T07:23:42.955Z,2.80
2023-01-03T07:26:12.147Z,2.90
2023-01-03T07:28:40.013Z,2.90
2023-01-03T07:31:08.667Z,2.80
2023-01-03T07:33:39.148Z,2.80
2023-01-03T07:36:12.161Z,2.70
2023-01-03T07:38:41.144Z,2.70
2023-01-03T07:41:09.730Z,2.80
2023-01-03T07:43:40.336Z,2.80
2023-01-03T07:46:10.505Z,2.90
2023-01-03T07:48:39.482Z,2.80
2023-01-03T07:51:08.970Z,2.60
2023-01-03T07:53:37.738Z,2.60
2023-01-03T07:56:12.850Z,2.50
2023-01-03T07:58:44.432Z,2.50
2023-01-03T08:01:14.670Z,2.40
2023-01-03T08:03:43.773Z,2.30
2023-01-03T08:06:13.743Z,2.20
2023-01-03T08:08:41.949Z,2.30
2023-01-03T08:11:30.266Z,2.40
2023-01-03T08:14:00.043Z,2.50
2023-01-03T08:16:27.948Z,2.60
2023-01-03T08:18:55.890Z,2.70
2023-01-03T08:21:23.731Z,2.70
2023-01-03T08:23:51.639Z,2.80
2023-01-03T08:26:20.951Z,2.70
2023-01-03T08:28:48.807Z,2.80
2023-01-03T08:31:20.469Z,2.80
2023-01-03T08:33:51.642Z,2.80
2023-01-03T08:36:20.461Z,2.80
2023-01-03T08:38:53.955Z,2.80
2023-01-03T08:41:25.650Z,2.80
2023-01-03T08:43:55.366Z,2.90
2023-01-03T08:46:24.716Z,2.90
2023-01-03T08:48:52.614Z,2.90
2023-01-03T08:51:20.482Z,3.00
2023-01-03T08:53:48.341Z,3.00
2023-01-03T08:56:16.240Z,3.20
2023-01-03T08:58:44.064Z,3.30
2023-01-03T09:01:12.088Z,3.40
2023-01-03T09:03:41.690Z,3.50
2023-01-03T09:06:09.769Z,3.50
2023-01-03T09:08:37.609Z,3.70
2023-01-03T09:11:06.376Z,3.80
2023-01-03T09:13:34.308Z,4.00
2023-01-03T09:16:02.802Z,4.10
2023-01-03T09:18:30.751Z,4.20
2023-01-03T09:21:00.120Z,4.30
2023-01-03T09:23:27.953Z,4.40
2023-01-03T09:25:55.838Z,4.40
2023-01-03T09:28:24.366Z,4.40
2023-01-03T09:30:52.529Z,4.50
2023-01-03T09:33:20.651Z,4.50
2023-01-03T09:35:48.602Z,4.60
2023-01-03T09:38:17.817Z,4.70
2023-01-03T09:40:47.398Z,4.80
2023-01-03T09:43:24.742Z,4.90
2023-01-03T09:45:56.628Z,5.00
2023-01-03T09:48:30.634Z,5.10
2023-01-03T09:51:18.505Z,5.20
2023-01-03T09:54:05.241Z,5.30
2023-01-03T09:56:51.152Z,5.40
2023-01-03T09:59:37.029Z,5.40
2023-01-03T10:02:41.090Z,5.50
2023-01-03T10:05:28.169Z,5.50
2023-01-03T10:08:15.549Z,5.60
2023-01-03T10:10:52.441Z,5.60
2023-01-03T10:13:33.095Z,5.70
2023-01-03T10:16:08.508Z,5.90
2023-01-03T10:18:55.863Z,6.00
2023-01-03T10:21:31.956Z,6.20
2023-01-03T10:24:00.619Z,6.50
2023-01-03T10:26:34.219Z,6.60
2023-01-03T10:29:02.570Z,6.70
2023-01-03T10:31:44.311Z,6.80
2023-01-03T10:34:12.742Z,6.90
2023-01-03T10:36:40.580Z,7.00
2023-01-03T10:39:10.608Z,7.10
2023-01-03T10:41:45.086Z,7.30
2023-01-03T10:44:25.510Z,7.50
2023-01-03T10:46:55.123Z,7.70
2023-01-03T10:49:27.723Z,7.80
2023-01-03T10:52:00.922Z,7.80
2023-01-03T10:54:33.035Z,7.80
2023-01-03T10:57:02.512Z,7.80
2023-01-03T10:59:32.835Z,7.70
2023-01-03T11:02:03.427Z,7.70
2023-01-03T11:04:32.827Z,7.70
2023-01-03T11:07:03.960Z,7.60
2023-01-03T11:09:36.676Z,7.50
2023-01-03T11:12:12.624Z,7.50
2023-01-03T11:14:40.798Z,7.50
2023-01-03T11:17:14.056Z,7.60
2023-01-03T11:19:41.983Z,7.60
2023-01-03T11:22:15.779Z,7.60
2023-01-03T11:24:56.829Z,7.60
2023-01-03T11:27:40.588Z,7.60
2023-01-03T11:30:18.518Z,7.70
2023-01-03T11:33:29.141Z,7.70
2023-01-03T11:36:12.522Z,7.80
2023-01-03T11:38:48.886Z,7.80
2023-01-03T11:41:52.925Z,7.90
2023-01-03T11:45:00.421Z,7.90
2023-01-03T11:47:38.045Z,7.90
2023-01-03T11:50:19.789Z,7.90
2023-01-03T11:52:54.533Z,8.00
2023-01-03T11:55:48.962Z,8.00
2023-01-03T11:58:52.987Z,8.10
2023-01-03T12:01:39.083Z,8.10
2023-01-03T12:04:25.781Z,8.20
2023-01-03T12:07:45.337Z,8.30
2023-01-03T12:10:01.086Z,8.30
2023-01-03T12:12:51.626Z,8.30
2023-01-03T12:15:24.141Z,8.30
2023-01-03T12:17:59.600Z,8.30
2023-01-03T12:20:31.249Z,8.40
2023-01-03T12:23:04.276Z,8.40
2023-01-03T12:25:36.561Z,8.40
2023-01-03T12:28:13.279Z,8.50
2023-01-03T12:30:44.374Z,8.40
2023-01-03T12:33:27.394Z,8.50
2023-01-03T12:36:00.758Z,8.40
2023-01-03T12:38:32.997Z,8.40
2023-01-03T12:41:07.881Z,8.50
2023-01-03T12:43:45.789Z,8.60
2023-01-03T12:46:18.339Z,8.80
2023-01-03T12:49:03.617Z,9.00
2023-01-03T12:51:31.579Z,9.10
2023-01-03T12:54:12.838Z,9.00
2023-01-03T12:57:19.632Z,9.10
2023-01-03T13:00:08.091Z,9.00
2023-01-03T13:02:45.280Z,9.00
2023-01-03T13:05:20.890Z,8.90
2023-01-03T13:07:55.374Z,8.90
2023-01-03T13:10:33.021Z,8.90
2023-01-03T13:13:02.494Z,8.90
2023-01-03T13:15:36.713Z,8.90
2023-01-03T13:18:30.783Z,8.80
2023-01-03T13:21:00.560Z,8.80
2023-01-03T13:23:36.995Z,8.70
2023-01-03T13:26:25.148Z,8.60
2023-01-03T13:28:54.292Z,8.60
2023-01-03T13:31:40.203Z,8.60
2023-01-03T13:34:31.151Z,8.50
2023-01-03T13:37:27.805Z,8.50
2023-01-03T13:40:45.506Z,8.40
2023-01-03T13:43:19.703Z,8.40
2023-01-03T13:45:53.716Z,8.40
2023-01-03T13:48:31.320Z,8.40
2023-01-03T13:51:48.133Z,8.40
2023-01-03T13:55:06.948Z,8.40
2023-01-03T13:57:53.330Z,8.40
2023-01-03T14:00:23.999Z,8.50
2023-01-03T14:03:14.451Z,8.60
2023-01-03T14:06:12.781Z,8.70
2023-01-03T14:09:11.091Z,8.80
2023-01-03T14:11:54.944Z,8.90
2023-01-03T14:14:28.659Z,8.90
2023-01-03T14:16:58.680Z,8.80
2023-01-03T14:19:32.222Z,8.70
2023-01-03T14:22:26.762Z,8.70
2023-01-03T14:24:52.668Z,8.60
2023-01-03T14:27:24.153Z,8.50
2023-01-03T14:29:55.352Z,8.50
2023-01-03T14:32:32.021Z,8.40
2023-01-03T14:35:02.122Z,8.40
2023-01-03T14:37:32.967Z,8.30
2023-01-03T14:40:02.242Z,8.30
2023-01-03T14:42:30.233Z,8.30
2023-01-03T14:45:01.364Z,8.20
2023-01-03T14:47:33.899Z,8.20
2023-01-03T14:50:03.334Z,8.10
2023-01-03T14:52:33.966Z,8.10
2023-01-03T14:55:05.260Z,8.10
2023-01-03T14:57:37.497Z,8.10
2023-01-03T15:00:08.803Z,8.10
2023-01-03T15:02:40.140Z,8.00
2023-01-03T15:05:28.746Z,8.00
2023-01-03T15:08:08.933Z,8.00
2023-01-03T15:10:45.108Z,8.00
2023-01-03T15:13:21.092Z,8.00
2023-01-03T15:15:56.412Z,7.90
2023-01-03T15:18:25.613Z,7.90
2023-01-03T15:20:55.429Z,7.90
2023-01-03T15:23:38.587Z,7.80
2023-01-03T15:26:08.060Z,7.80
2023-01-03T15:28:38.445Z,7.80
2023-01-03T15:31:33.972Z,7.70
2023-01-03T15:34:10.628Z,7.70
2023-01-03T15:36:38.766Z,7.60
2023-01-03T15:39:09.638Z,7.60
2023-01-03T15:42:34.464Z,7.60
2023-01-03T15:44:46.622Z,7.60
2023-01-03T15:47:19.773Z,7.60
2023-01-03T15:49:51.233Z,7.50
2023-01-03T15:52:19.096Z,7.50
2023-01-03T15:54:48.093Z,7.50
2023-01-03T15:57:20.541Z,7.50
2023-01-03T15:59:53.980Z,7.50
2023-01-03T16:02:24.563Z,7.50
2023-01-03T16:04:53.493Z,7.40
2023-01-03T16:07:21.404Z,7.40
2023-01-03T16:09:49.813Z,7.40
2023-01-03T16:12:21.468Z,7.30
2023-01-03T16:14:52.645Z,7.30
2023-01-03T16:17:25.860Z,7.30
2023-01-03T16:19:54.266Z,7.30
2023-01-03T16:22:34.452Z,7.30
2023-01-03T16:25:04.047Z,7.30
2023-01-03T16:27:31.958Z,7.30
2023-01-03T16:29:59.782Z,7.30
2023-01-03T16:32:30.906Z,7.30
2023-01-03T16:35:01.324Z,7.30
2023-01-03T16:37:29.338Z,7.30
2023-01-03T16:39:58.342Z,7.30
2023-01-03T16:42:28.432Z,7.30
2023-01-03T16:44:57.060Z,7.20
2023-01-03T16:47:30.161Z,7.20
2023-01-03T16:50:01.743Z,7.20
2023-01-03T16:52:34.535Z,7.20
2023-01-03T16:55:14.696Z,7.20
2023-01-03T16:57:42.588Z,7.20
2023-01-03T17:00:18.743Z,7.20
2023-01-03T17:02:47.443Z,7.20
2023-01-03T17:05:17.268Z,7.20
2023-01-03T17:07:47.910Z,7.20
2023-01-03T17:10:26.670Z,7.20
2023-01-03T17:12:54.902Z,7.20
2023-01-03T17:15:22.775Z,7.10
2023-01-03T17:17:50.663Z,7.10
2023-01-03T17:20:21.054Z,7.10
2023-01-03T17:22:52.502Z,7.10
2023-01-03T17:25:20.371Z,7.00
2023-01-03T17:27:53.099Z,7.00
2023-01-03T17:30:23.401Z,7.00
2023-01-03T17:32:51.411Z,7.00
2023-01-03T17:35:20.606Z,7.00
2023-01-03T17:40:37.106Z,7.00
2023-01-03T17:43:04.939Z,7.00
2023-01-03T17:45:50.530Z,6.90
2023-01-03T17:48:36.185Z,6.90
2023-01-03T17:51:05.669Z,6.80
2023-01-03T17:53:33.868Z,6.80
2023-01-03T17:56:01.740Z,6.70
2023-01-03T17:58:32.761Z,6.60
2023-01-03T18:01:01.028Z,6.50
2023-01-03T18:03:30.429Z,6.50
2023-01-03T18:05:59.319Z,6.40
2023-01-03T18:08:28.527Z,6.30
2023-01-03T18:10:56.928Z,6.30
2023-01-03T18:13:27.645Z,6.30
2023-01-03T18:15:56.403Z,6.20
2023-01-03T18:18:26.313Z,6.30
2023-01-03T18:20:55.365Z,6.20
2023-01-03T18:23:29.134Z,6.20
2023-01-03T18:25:59.629Z,6.20
2023-01-03T18:28:28.498Z,6.20
2023-01-03T18:30:56.999Z,6.20
2023-01-03T18:33:25.068Z,6.20
2023-01-03T18:35:53.334Z,6.20
2023-01-03T18:38:26.215Z,6.20
2023-01-03T18:41:04.057Z,6.20
2023-01-03T18:43:32.742Z,6.20
2023-01-03T18:46:00.827Z,6.20
2023-01-03T18:48:28.752Z,6.30
2023-01-03T18:50:59.546Z,6.30
2023-01-03T18:53:31.737Z,6.30
2023-01-03T18:56:02.418Z,6.30
2023-01-03T18:58:33.977Z,6.30
2023-01-03T19:01:02.043Z,6.30
2023-01-03T19:03:31.571Z,6.30
2023-01-03T19:06:00.427Z,6.30
2023-01-03T19:08:32.195Z,6.20
2023-01-03T19:11:05.935Z,6.20
2023-01-03T19:13:50.174Z,6.20
2023-01-03T19:16:20.242Z,6.20
2023-01-03T19:18:48.166Z,6.10
2023-01-03T19:21:16.772Z,6.00
2023-01-03T19:23:47.339Z,6.00
2023-01-03T19:26:26.646Z,5.90
2023-01-03T19:28:57.743Z,5.90
2023-01-03T19:31:27.096Z,5.90
2023-01-03T19:33:55.270Z,5.90
2023-01-03T19:36:24.051Z,5.80
2023-01-03T19:38:51.932Z,5.80
2023-01-03T19:41:21.994Z,5.80
2023-01-03T19:43:50.785Z,5.80
2023-01-03T19:46:19.388Z,5.70
2023-01-03T19:48:47.280Z,5.70
2023-01-03T19:51:15.194Z,5.60
2023-01-03T19:53:43.124Z,5.50
2023-01-03T19:56:23.438Z,5.50
2023-01-03T19:58:52.459Z,5.40
2023-01-03T20:01:21.572Z,5.40
2023-01-03T20:03:50.384Z,5.40
2023-01-03T20:06:19.431Z,5.40
2023-01-03T20:08:48.040Z,5.30
2023-01-03T20:11:18.337Z,5.30
2023-01-03T20:13:47.591Z,5.30
2023-01-03T20:16:16.472Z,5.30
2023-01-03T20:18:44.449Z,5.30
2023-01-03T20:21:22.141Z,5.20
2023-01-03T20:23:55.062Z,5.20
2023-01-03T20:26:25.065Z,5.10
2023-01-03T20:28:55.942Z,5.10
2023-01-03T20:31:24.331Z,5.10
2023-01-03T20:33:53.093Z,5.10
2023-01-03T20:36:23.890Z,5.10
2023-01-03T20:38:55.537Z,5.10
2023-01-03T20:41:35.907Z,5.00
2023-01-03T20:44:07.966Z,5.00
2023-01-03T20:46:38.787Z,4.90
2023-01-03T20:49:13.948Z,4.90
2023-01-03T20:51:41.764Z,4.80
2023-01-03T20:54:10.138Z,4.80
2023-01-03T20:56:38.092Z,4.80
2023-01-03T20:59:08.012Z,4.70
2023-01-03T21:01:36.361Z,4.70
2023-01-03T21:04:04.466Z,4.70
2023-01-03T21:06:34.449Z,4.70
2023-01-03T21:09:02.309Z,4.60
2023-01-03T21:11:31.805Z,4.40
2023-01-03T21:14:00.941Z,4.30
2023-01-03T21:16:36.644Z,4.20
2023-01-03T21:19:11.810Z,4.10
2023-01-03T21:21:40.585Z,4.10
2023-01-03T21:24:10.521Z,4.00
2023-01-03T21:26:38.450Z,3.90
2023-01-03T21:29:06.577Z,3.80
2023-01-03T21:31:37.644Z,3.70
2023-01-03T21:34:07.180Z,3.60
2023-01-03T21:36:36.731Z,3.60
2023-01-03T21:39:05.519Z,3.70
2023-01-03T21:41:55.697Z,3.70
2023-01-03T21:44:23.712Z,3.70
2023-01-03T21:46:52.944Z,3.70
2023-01-03T21:49:21.258Z,3.70
2023-01-03T21:51:49.115Z,3.70
2023-01-03T21:54:17.011Z,3.70
2023-01-03T21:56:46.771Z,3.70
2023-01-03T21:59:15.453Z,3.80
2023-01-03T22:02:04.544Z,3.60
2023-01-03T22:04:34.618Z,3.40
2023-01-03T22:07:02.782Z,3.20
2023-01-03T22:09:48.857Z,3.10
2023-01-03T22:12:17.131Z,3.10
2023-01-03T22:14:45.136Z,3.00
2023-01-03T22:17:13.096Z,2.90
2023-01-03T22:19:42.592Z,2.90
2023-01-03T22:22:10.410Z,2.80
2023-01-03T22:24:38.231Z,2.80
2023-01-03T22:27:06.110Z,2.80
2023-01-03T22:29:33.981Z,2.90
2023-01-03T22:32:01.890Z,2.90
2023-01-03T22:34:29.953Z,3.00
2023-01-03T22:36:59.144Z,3.00
2023-01-03T22:39:27.021Z,2.90
2023-01-03T22:41:54.847Z,2.80
2023-01-03T22:44:22.692Z,2.60
2023-01-03T22:46:50.539Z,2.50
2023-01-03T22:49:18.430Z,2.40
2023-01-03T22:51:46.302Z,2.50
2023-01-03T22:54:15.513Z,2.50
2023-01-03T22:56:43.356Z,2.40
2023-01-03T22:59:11.172Z,2.30
2023-01-03T23:01:39.283Z,2.40
2023-01-03T23:04:07.488Z,2.30
2023-01-03T23:06:36.726Z,2.40
2023-01-03T23:09:05.014Z,2.40
2023-01-03T23:11:51.736Z,2.50
2023-01-03T23:14:21.098Z,2.50
2023-01-03T23:16:50.745Z,2.30
2023-01-03T23:19:20.788Z,2.10
2023-01-03T23:21:48.750Z,2.00
2023-01-03T23:24:18.530Z,1.90
2023-01-03T23:26:47.913Z,1.90
2023-01-03T23:29:16.164Z,1.90
2023-01-03T23:31:44.395Z,1.90
2023-01-03T23:34:13.229Z,1.90
2023-01-03T23:36:42.933Z,1.80
2023-01-03T23:39:13.652Z,1.80
2023-01-03T23:41:41.503Z,1.80
2023-01-03T23:44:11.073Z,1.90
2023-01-03T23:46:39.714Z,1.90
2023-01-03T23:49:07.590Z,2.00
2023-01-03T23:51:35.595Z,1.90
2023-01-03T23:54:03.744Z,1.90
2023-01-03T23:56:31.687Z,1.80
2023-01-03T23:58:59.584Z,1.70
